createdAt,value
2022-11-02T00:02:18.756Z,99011.23
2022-11-02T00:04:57.024Z,99012.11
2022-11-02T00:07:30.364Z,99011.75
2022-11-02T00:10:30.179Z,99011.56
2022-11-02T00:13:04.788Z,99004.30
2022-11-02T00:16:28.132Z,99006.08
2022-11-02T00:19:50.475Z,99014.23
2022-11-02T00:23:15.465Z,99013.54
2022-11-02T00:25:56.100Z,99008.98
2022-11-02T00:28:53.010Z,99009.72
2022-11-02T00:31:27.539Z,99010.79
2022-11-02T00:34:28.405Z,99015.90
2022-11-02T00:37:49.316Z,99018.03
2022-11-02T00:40:27.360Z,99017.52
2022-11-02T00:49:49.608Z,99020.27
2022-11-02T00:53:14.333Z,99022.38
2022-11-02T00:56:16.195Z,99019.55
2022-11-02T00:58:50.912Z,99022.19
2022-11-02T01:01:47.909Z,99021.66
2022-11-02T01:04:48.834Z,99020.58
2022-11-02T01:07:23.768Z,99017.59
2022-11-02T01:10:01.848Z,99022.19
2022-11-02T01:15:58.593Z,99023.77
2022-11-02T01:18:59.833Z,99022.88
2022-11-02T01:21:36.510Z,99017.74
2022-11-02T01:24:38.933Z,99021.27
2022-11-02T01:27:37.369Z,99024.64
2022-11-02T01:30:22.910Z,99024.85
2022-11-02T01:32:59.161Z,99031.90
2022-11-02T01:36:02.460Z,99032.61
2022-11-02T01:38:45.369Z,99034.20
2022-11-02T01:42:11.766Z,99030.02
2022-11-02T01:44:48.646Z,99028.30
2022-11-02T01:51:15.320Z,99024.07
2022-11-02T01:53:50.331Z,99027.77
2022-11-02T01:57:14.564Z,99024.09
2022-11-02T02:03:32.943Z,99024.27
2022-11-02T02:06:12.423Z,99020.02
2022-11-02T02:12:22.943Z,99023.04
2022-11-02T02:15:22.343Z,99024.98
2022-11-02T02:18:24.841Z,99026.61
2022-11-02T02:21:49.127Z,99030.34
2022-11-02T02:24:43.960Z,99025.21
2022-11-02T02:27:57.328Z,99031.92
2022-11-02T02:30:45.210Z,99034.75
2022-11-02T02:44:15.187Z,99042.33
2022-11-02T02:47:13.370Z,99045.14
2022-11-02T02:50:04.118Z,99040.56
2022-11-02T02:52:43.029Z,99041.60
2022-11-02T03:05:43.252Z,99037.67
2022-11-02T03:08:30.112Z,99035.55
2022-11-02T03:14:49.670Z,99039.45
2022-11-02T03:17:31.932Z,99043.30
2022-11-02T03:20:38.849Z,99049.64
2022-11-02T03:23:19.341Z,99053.33
2022-11-02T03:26:25.544Z,99055.12
2022-11-02T03:29:35.523Z,99053.70
2022-11-02T03:35:26.013Z,99057.36
2022-11-02T03:41:33.969Z,99062.11
2022-11-02T03:44:41.348Z,99065.29
2022-11-02T03:47:15.461Z,99065.48
2022-11-02T03:50:12.582Z,99069.39
2022-11-02T03:53:15.157Z,99064.50
2022-11-02T03:59:46.957Z,99066.27
2022-11-02T04:06:37.180Z,99071.40
2022-11-02T04:09:39.761Z,99072.80
2022-11-02T04:12:42.469Z,99069.81
2022-11-02T04:15:15.365Z,99069.29
2022-11-02T04:18:12.368Z,99068.05
2022-11-02T04:20:55.827Z,99067.34
2022-11-02T04:23:49.696Z,99067.87
2022-11-02T04:26:45.306Z,99073.16
2022-11-02T04:29:22.169Z,99076.51
2022-11-02T04:33:05.882Z,99076.51
2022-11-02T04:43:10.265Z,99081.19
2022-11-02T04:45:43.830Z,99081.55
2022-11-02T04:48:45.358Z,99081.19
2022-11-02T04:51:48.778Z,99085.23
2022-11-02T04:54:28.339Z,99079.77
2022-11-02T04:57:30.271Z,99080.30
2022-11-02T05:00:15.239Z,99084.70
2022-11-02T05:02:54.738Z,99085.03
2022-11-02T05:05:32.719Z,99080.45
2022-11-02T05:08:09.981Z,99081.33
2022-11-02T05:10:46.858Z,99084.11
2022-11-02T05:14:07.865Z,99086.05
2022-11-02T05:17:10.234Z,99094.48
2022-11-02T05:26:11.343Z,99102.55
2022-11-02T05:32:10.589Z,99108.17
2022-11-02T05:34:46.443Z,99112.75
2022-11-02T05:38:10.155Z,99108.52
2022-11-02T05:41:33.268Z,99108.86
2022-11-02T05:51:06.669Z,99103.54
2022-11-02T05:54:09.887Z,99111.59
2022-11-02T05:57:31.708Z,99115.95
2022-11-02T06:00:19.250Z,99117.36
2022-11-02T06:09:49.448Z,99119.31
2022-11-02T06:12:25.279Z,99117.23
2022-11-02T06:15:01.251Z,99117.95
2022-11-02T06:21:38.258Z,99119.73
2022-11-02T06:24:15.562Z,99119.94
2022-11-02T06:30:32.268Z,99118.27
2022-11-02T06:36:57.877Z,99121.68
2022-11-02T06:39:38.179Z,99124.00
2022-11-02T06:42:12.672Z,99120.71
2022-11-02T06:44:50.710Z,99126.89
2022-11-02T06:47:48.399Z,99130.26
2022-11-02T06:54:32.405Z,99134.15
2022-11-02T06:57:55.948Z,99132.73
2022-11-02T07:01:15.793Z,99130.63
2022-11-02T07:04:40.591Z,99132.04
2022-11-02T07:07:21.104Z,99134.48
2022-11-02T07:09:54.470Z,99134.49
2022-11-02T07:12:32.801Z,99138.02
2022-11-02T07:19:25.347Z,99136.80
2022-11-02T07:25:48.094Z,99137.11
2022-11-02T07:28:44.143Z,99139.77
2022-11-02T07:34:45.393Z,99145.38
2022-11-02T07:37:44.353Z,99141.91
2022-11-02T07:44:14.845Z,99141.27
2022-11-02T07:50:24.832Z,99135.14
2022-11-02T07:56:23.632Z,99139.92
2022-11-02T07:59:09.205Z,99140.77
2022-11-02T08:01:47.862Z,99138.40
2022-11-02T08:04:25.796Z,99132.73
2022-11-02T08:07:03.903Z,99128.78
2022-11-02T08:09:41.600Z,99125.81
2022-11-02T08:12:18.502Z,99126.27
2022-11-02T08:14:54.185Z,99125.25
2022-11-02T08:17:28.229Z,99125.50
2022-11-02T08:20:03.096Z,99122.92
2022-11-02T08:22:35.467Z,99118.75
2022-11-02T08:25:09.738Z,99121.52
2022-11-02T08:27:43.124Z,99118.80
2022-11-02T08:30:20.156Z,99117.86
2022-11-02T08:32:57.132Z,99115.52
2022-11-02T08:35:30.294Z,99121.14
2022-11-02T08:38:06.092Z,99119.15
2022-11-02T08:40:39.739Z,99120.70
2022-11-02T08:43:14.495Z,99119.44
2022-11-02T08:46:13.763Z,99120.06
2022-11-02T08:48:39.601Z,99114.88
2022-11-02T08:51:14.621Z,99115.38
2022-11-02T08:53:51.647Z,99113.14
2022-11-02T08:56:24.175Z,99113.52
2022-11-02T08:58:57.018Z,99111.05
2022-11-02T09:01:31.519Z,99110.37
2022-11-02T09:04:05.731Z,99104.07
2022-11-02T09:06:42.441Z,99103.98
2022-11-02T09:09:18.222Z,99105.89
2022-11-02T09:11:53.349Z,99102.27
2022-11-02T09:14:26.013Z,99104.77
2022-11-02T09:17:00.574Z,99102.52
2022-11-02T09:19:35.281Z,99100.46
2022-11-02T09:22:08.646Z,99101.52
2022-11-02T09:24:41.897Z,99099.73
2022-11-02T09:27:15.884Z,99099.36
2022-11-02T09:29:50.610Z,99096.67
2022-11-02T09:35:57.811Z,99098.17
2022-11-02T09:38:36.415Z,99096.31
2022-11-02T09:41:37.221Z,99095.11
2022-11-02T09:44:44.198Z,99097.42
2022-11-02T09:50:23.093Z,99094.30
2022-11-02T09:53:27.947Z,99097.08
2022-11-02T09:56:34.634Z,99099.11
2022-11-02T09:59:55.510Z,99096.14
2022-11-02T10:02:53.452Z,99094.81
2022-11-02T10:09:27.188Z,99099.91
2022-11-02T10:12:17.757Z,99101.24
2022-11-02T10:15:05.173Z,99100.04
2022-11-02T10:17:45.312Z,99099.55
2022-11-02T10:20:50.635Z,99102.30
2022-11-02T10:23:32.875Z,99103.85
2022-11-02T10:26:17.685Z,99098.79
2022-11-02T10:29:23.020Z,99095.67
2022-11-02T10:32:27.358Z,99098.98
2022-11-02T10:35:57.592Z,99096.36
2022-11-02T10:38:46.487Z,99091.30
2022-11-02T10:44:57.709Z,99088.27
2022-11-02T10:48:01.217Z,99078.20
2022-11-02T10:50:52.582Z,99078.67
2022-11-02T10:53:40.734Z,99080.45
2022-11-02T10:56:50.221Z,99078.29
2022-11-02T10:59:33.330Z,99075.34
2022-11-02T11:02:18.702Z,99074.63
2022-11-02T11:04:51.660Z,99070.60
2022-11-02T11:07:51.641Z,99067.92
2022-11-02T11:10:50.920Z,99065.61
2022-11-02T11:20:43.810Z,99063.80
2022-11-02T11:23:38.124Z,99064.92
2022-11-02T11:27:05.101Z,99061.79
2022-11-02T11:33:24.733Z,99060.98
2022-11-02T11:39:32.681Z,99063.17
2022-11-02T11:42:28.052Z,99061.63
2022-11-02T11:52:31.248Z,99053.84
2022-11-02T11:55:27.389Z,99048.02
2022-11-02T11:58:20.602Z,99047.86
2022-11-02T12:01:19.119Z,99044.39
2022-11-02T12:04:03.992Z,99041.90
2022-11-02T12:07:08.984Z,99043.50
2022-11-02T12:09:50.507Z,99038.32
2022-11-02T12:27:22.122Z,99027.70
2022-11-02T12:30:22.433Z,99029.64
2022-11-02T12:33:18.533Z,99028.30
2022-11-02T12:37:10.320Z,99019.73
2022-11-02T12:40:16.138Z,99022.42
2022-11-02T12:43:35.177Z,99019.48
2022-11-02T12:46:43.352Z,99017.60
2022-11-02T12:49:46.399Z,99017.27
2022-11-02T12:55:45.975Z,99005.68
2022-11-02T12:58:49.471Z,99010.55
2022-11-02T13:01:48.360Z,99010.95
2022-11-02T13:05:14.277Z,99007.58
2022-11-02T13:07:51.249Z,99002.95
2022-11-02T13:18:09.377Z,99011.59
2022-11-02T13:21:09.639Z,99018.44
2022-11-02T13:23:48.627Z,99010.60
2022-11-02T13:26:38.751Z,99013.17
2022-11-02T13:29:24.960Z,99011.52
2022-11-02T13:35:41.132Z,99018.58
2022-11-02T13:42:35.905Z,99020.09
2022-11-02T13:45:28.803Z,99015.18
2022-11-02T13:54:53.443Z,99027.61
2022-11-02T13:58:15.866Z,99027.87
2022-11-02T14:07:53.416Z,99028.36
2022-11-02T14:10:49.598Z,99027.29
2022-11-02T14:14:25.224Z,99026.85
2022-11-02T14:17:22.914Z,99030.44
2022-11-02T14:20:06.057Z,99025.68
2022-11-02T14:22:39.850Z,99028.30
2022-11-02T14:25:43.989Z,99028.75
2022-11-02T14:28:44.528Z,99028.67
2022-11-02T14:32:08.097Z,99027.45
2022-11-02T14:34:53.570Z,99024.98
2022-11-02T14:38:00.873Z,99022.16
2022-11-02T14:41:07.004Z,99025.31
2022-11-02T14:44:33.033Z,99024.88
2022-11-02T14:47:20.089Z,99027.84
2022-11-02T14:50:47.150Z,99029.87
2022-11-02T14:53:26.701Z,99031.66
2022-11-02T14:56:00.566Z,99032.39
2022-11-02T14:58:38.254Z,99035.13
2022-11-02T15:01:21.301Z,99032.81
2022-11-02T15:04:20.470Z,99031.84
2022-11-02T15:07:05.984Z,99033.34
2022-11-02T15:10:12.067Z,99035.61
2022-11-02T15:12:52.389Z,99039.52
2022-11-02T15:15:39.426Z,99040.16
2022-11-02T15:19:01.767Z,99048.14
2022-11-02T15:24:46.051Z,99051.45
2022-11-02T15:27:23.474Z,99052.45
2022-11-02T15:30:00.326Z,99057.16
2022-11-02T15:32:45.917Z,99063.66
2022-11-02T15:38:36.697Z,99074.61
2022-11-02T15:42:06.682Z,99077.77
2022-11-02T15:45:47.799Z,99079.84
2022-11-02T15:48:36.313Z,99086.21
2022-11-02T15:51:42.423Z,99090.57
2022-11-02T16:01:28.615Z,99100.95
2022-11-02T16:04:48.309Z,99104.52
2022-11-02T16:07:38.139Z,99104.83
2022-11-02T16:10:43.681Z,99103.88
2022-11-02T16:13:21.190Z,99107.09
2022-11-02T16:16:09.850Z,99109.45
2022-11-02T16:18:45.565Z,99109.36
2022-11-02T16:21:23.228Z,99110.30
2022-11-02T16:24:27.262Z,99114.83
2022-11-02T16:27:02.548Z,99121.85
2022-11-02T16:30:07.090Z,99119.25
2022-11-02T16:32:45.917Z,99124.04
2022-11-02T16:35:24.457Z,99126.93
2022-11-02T16:37:57.353Z,99128.29
2022-11-02T16:40:30.925Z,99130.14
2022-11-02T16:43:02.767Z,99134.11
2022-11-02T16:45:43.530Z,99137.74
2022-11-02T16:48:26.575Z,99147.10
2022-11-02T16:51:24.126Z,99148.41
2022-11-02T16:54:01.534Z,99147.54
2022-11-02T16:57:11.511Z,99148.18
2022-11-02T17:00:03.516Z,99150.39
2022-11-02T17:06:16.518Z,99155.55
2022-11-02T17:09:18.369Z,99158.24
2022-11-02T17:12:15.655Z,99161.05
2022-11-02T17:15:15.859Z,99164.23
2022-11-02T17:18:56.245Z,99165.00
2022-11-02T17:21:36.583Z,99165.46
2022-11-02T17:27:56.595Z,99171.37
2022-11-02T17:34:51.567Z,99182.94
2022-11-02T17:37:54.293Z,99183.36
2022-11-02T17:40:27.625Z,99180.96
2022-11-02T17:43:02.602Z,99181.70
2022-11-02T17:46:03.339Z,99185.60
2022-11-02T17:52:05.923Z,99187.92
2022-11-02T17:54:41.232Z,99184.85
2022-11-02T17:57:18.553Z,99184.12
2022-11-02T17:59:53.245Z,99188.91
2022-11-02T18:02:50.341Z,99186.44
2022-11-02T18:05:28.676Z,99192.80
2022-11-02T18:12:29.563Z,99194.27
2022-11-02T18:15:05.332Z,99194.27
2022-11-02T18:17:43.145Z,99195.34
2022-11-02T18:20:22.100Z,99192.18
2022-11-02T18:22:56.431Z,99188.83
2022-11-02T18:25:32.189Z,99193.08
2022-11-02T18:28:14.316Z,99201.55
2022-11-02T18:31:17.663Z,99207.23
2022-11-02T18:33:53.255Z,99209.34
2022-11-02T18:39:31.643Z,99210.98
2022-11-02T18:42:09.757Z,99215.21
2022-11-02T18:44:51.914Z,99212.57
2022-11-02T18:47:27.524Z,99209.58
2022-11-02T18:50:06.182Z,99212.06
2022-11-02T18:53:05.638Z,99219.84
2022-11-02T18:55:44.533Z,99220.19
2022-11-02T18:58:22.262Z,99226.20
2022-11-02T19:01:07.954Z,99228.85
2022-11-02T19:03:40.907Z,99231.52
2022-11-02T19:09:42.708Z,99230.11
2022-11-02T19:12:41.733Z,99231.88
2022-11-02T19:19:00.990Z,99244.92
2022-11-02T19:21:36.638Z,99249.33
2022-11-02T19:24:16.316Z,99246.51
2022-11-02T19:30:43.061Z,99249.31
2022-11-02T19:33:41.183Z,99247.37
2022-11-02T19:45:48.381Z,99264.66
2022-11-02T19:48:45.971Z,99266.44
2022-11-02T19:52:10.871Z,99274.55
2022-11-02T19:54:55.035Z,99271.73
2022-11-02T19:57:59.493Z,99274.90
2022-11-02T20:00:38.388Z,99274.34
2022-11-02T20:03:17.714Z,99272.40
2022-11-02T20:05:54.133Z,99269.92
2022-11-02T20:08:38.756Z,99265.68
2022-11-02T20:11:16.633Z,99272.41
2022-11-02T20:14:14.606Z,99275.23
2022-11-02T20:17:31.253Z,99278.08
2022-11-02T20:20:15.237Z,99280.19
2022-11-02T20:22:50.729Z,99280.55
2022-11-02T20:25:54.933Z,99279.15
2022-11-02T20:28:33.289Z,99278.45
2022-11-02T20:34:38.356Z,99276.52
2022-11-02T20:37:14.377Z,99278.64
2022-11-02T20:39:49.585Z,99278.10
2022-11-02T20:42:28.501Z,99283.94
2022-11-02T20:45:08.097Z,99281.46
2022-11-02T20:48:07.411Z,99282.89
2022-11-02T20:50:39.824Z,99279.36
2022-11-02T20:53:36.350Z,99282.89
2022-11-02T20:56:12.717Z,99276.54
2022-11-02T20:58:55.932Z,99279.20
2022-11-02T21:02:22.297Z,99281.31
2022-11-02T21:05:00.267Z,99283.41
2022-11-02T21:07:58.153Z,99282.69
2022-11-02T21:10:33.296Z,99284.09
2022-11-02T21:13:43.499Z,99282.85
2022-11-02T21:17:09.531Z,99286.20
2022-11-02T21:19:57.999Z,99284.80
2022-11-02T21:23:36.689Z,99284.60
2022-11-02T21:26:18.790Z,99290.42
2022-11-02T21:28:58.143Z,99294.30
2022-11-02T21:31:34.689Z,99297.48
2022-11-02T21:34:32.069Z,99294.09
2022-11-02T21:37:08.129Z,99293.05
2022-11-02T21:40:13.885Z,99296.21
2022-11-02T21:42:51.271Z,99300.45
2022-11-02T21:45:26.329Z,99300.60
2022-11-02T21:48:05.682Z,99298.12
2022-11-02T21:50:45.882Z,99303.40
2022-11-02T21:53:22.071Z,99299.35
2022-11-02T21:56:05.529Z,99295.45
2022-11-02T21:58:44.750Z,99298.43
2022-11-02T22:01:39.247Z,99295.95
2022-11-02T22:04:19.866Z,99295.22
2022-11-02T22:06:59.188Z,99298.02
2022-11-02T22:09:58.151Z,99297.47
2022-11-02T22:13:04.100Z,99294.46
2022-11-02T22:23:07.247Z,99287.34
2022-11-02T22:25:49.797Z,99291.02
2022-11-02T22:28:25.395Z,99294.02
2022-11-02T22:31:04.628Z,99295.39
2022-11-02T22:39:45.979Z,99310.60
2022-11-02T22:42:19.854Z,99311.63
2022-11-02T22:45:01.853Z,99315.63
2022-11-02T22:47:36.662Z,99325.13
2022-11-02T22:50:14.718Z,99325.96
2022-11-02T22:53:12.275Z,99330.34
2022-11-02T22:55:49.438Z,99334.01
2022-11-02T23:02:37.411Z,99332.66
2022-11-02T23:05:40.659Z,99331.76
2022-11-02T23:08:16.798Z,99331.04
2022-11-02T23:14:45.456Z,99330.96
2022-11-02T23:17:45.681Z,99329.36
2022-11-02T23:20:45.134Z,99332.84
2022-11-02T23:24:08.649Z,99331.03
2022-11-02T23:26:46.707Z,99331.86
2022-11-02T23:29:44.716Z,99330.20
2022-11-02T23:32:48.161Z,99329.91
2022-11-02T23:39:23.726Z,99340.98
2022-11-02T23:42:21.780Z,99339.88
2022-11-02T23:44:59.106Z,99340.73
2022-11-02T23:51:18.125Z,99348.75
2022-11-02T23:54:19.332Z,99352.05
2022-11-02T23:57:17.581Z,99353.90
2022-11-02T23:59:50.965Z,99354.80
